createdAt,value
2023-03-26T00:02:17.360Z,78.78
2023-03-26T00:04:39.018Z,79.19
2023-03-26T00:07:00.838Z,79.03
2023-03-26T00:09:22.845Z,79.25
2023-03-26T00:11:46.427Z,79.27
2023-03-26T00:14:13.722Z,79.40
2023-03-26T00:16:36.066Z,79.39
2023-03-26T00:18:59.674Z,79.00
2023-03-26T00:21:28.403Z,79.39
2023-03-26T00:23:50.112Z,78.73
2023-03-26T00:26:12.830Z,78.64
2023-03-26T00:28:35.044Z,78.98
2023-03-26T00:31:05.112Z,78.84
2023-03-26T00:33:27.876Z,79.04
2023-03-26T00:35:58.820Z,78.86
2023-03-26T00:38:23.989Z,79.38
2023-03-26T00:40:48.115Z,79.25
2023-03-26T00:43:19.132Z,79.18
2023-03-26T00:45:41.087Z,79.37
2023-03-26T00:48:02.937Z,79.07
2023-03-26T00:50:24.580Z,78.99
2023-03-26T00:52:46.302Z,78.92
2023-03-26T00:55:09.200Z,78.77
2023-03-26T00:57:35.777Z,78.91
2023-03-26T00:59:57.900Z,78.91
2023-03-26T01:02:20.841Z,78.71
2023-03-26T01:04:47.583Z,78.46
2023-03-26T01:07:21.713Z,78.98
2023-03-26T01:09:50.259Z,79.01
2023-03-26T01:12:17.144Z,78.88
2023-03-26T01:14:39.840Z,78.62
2023-03-26T01:17:05.974Z,78.70
2023-03-26T01:19:44.633Z,78.67
2023-03-26T01:22:11.924Z,78.30
2023-03-26T01:24:33.663Z,78.61
2023-03-26T01:27:14.702Z,78.44
2023-03-26T01:29:55.859Z,78.70
2023-03-26T01:32:51.474Z,78.59
2023-03-26T01:35:16.291Z,78.65
2023-03-26T01:38:11.048Z,78.60
2023-03-26T01:40:43.041Z,78.45
2023-03-26T01:43:32.690Z,78.40
2023-03-26T01:46:00.769Z,78.47
2023-03-26T01:48:32.115Z,78.05
2023-03-26T01:50:56.316Z,78.45
2023-03-26T01:53:18.097Z,78.19
2023-03-26T01:55:56.232Z,78.22
2023-03-26T01:58:46.614Z,78.41
2023-03-26T02:01:31.036Z,78.09
2023-03-26T02:04:33.194Z,78.13
2023-03-26T02:07:23.425Z,77.89
2023-03-26T02:09:57.846Z,78.12
2023-03-26T02:12:23.468Z,78.07
2023-03-26T02:14:46.023Z,77.81
2023-03-26T02:17:09.997Z,78.39
2023-03-26T02:19:31.821Z,78.17
2023-03-26T02:21:53.438Z,78.44
2023-03-26T02:24:15.696Z,78.58
2023-03-26T02:26:37.753Z,78.62
2023-03-26T02:29:06.277Z,78.74
2023-03-26T02:31:30.293Z,79.14
2023-03-26T02:33:55.671Z,78.93
2023-03-26T02:36:24.497Z,79.31
2023-03-26T02:38:47.002Z,79.44
2023-03-26T02:41:09.294Z,79.08
2023-03-26T02:43:44.957Z,79.23
2023-03-26T02:46:10.759Z,79.28
2023-03-26T02:48:51.188Z,79.12
2023-03-26T02:51:19.572Z,79.34
2023-03-26T02:53:54.740Z,79.55
2023-03-26T02:56:42.728Z,79.32
2023-03-26T02:59:27.386Z,79.82
2023-03-26T03:02:24.285Z,79.44
2023-03-26T03:04:47.673Z,79.23
2023-03-26T03:07:09.340Z,79.08
2023-03-26T03:09:31.384Z,79.03
2023-03-26T03:12:31.205Z,78.93
2023-03-26T03:14:52.816Z,79.06
2023-03-26T03:17:14.391Z,78.88
2023-03-26T03:19:37.809Z,79.04
2023-03-26T03:21:59.879Z,78.86
2023-03-26T03:24:21.632Z,78.62
2023-03-26T03:26:45.664Z,78.95
2023-03-26T03:29:19.454Z,78.80
2023-03-26T03:31:41.692Z,78.75
2023-03-26T03:34:13.556Z,78.42
2023-03-26T03:36:40.668Z,78.39
2023-03-26T03:39:12.774Z,78.57
2023-03-26T03:41:34.531Z,78.42
2023-03-26T03:43:59.876Z,78.44
2023-03-26T03:46:24.455Z,78.18
2023-03-26T03:48:49.724Z,78.09
2023-03-26T03:51:25.056Z,78.04
2023-03-26T03:53:58.705Z,78.03
2023-03-26T03:56:40.321Z,77.94
2023-03-26T03:59:15.452Z,77.82
2023-03-26T04:01:38.108Z,77.99
2023-03-26T04:04:04.235Z,77.93
2023-03-26T04:06:48.592Z,77.69
2023-03-26T04:09:11.579Z,78.13
2023-03-26T04:11:33.926Z,77.94
2023-03-26T04:14:13.846Z,77.69
2023-03-26T04:16:49.668Z,77.90
2023-03-26T04:19:11.370Z,77.92
2023-03-26T04:21:33.959Z,78.02
2023-03-26T04:23:56.557Z,77.99
2023-03-26T04:26:38.402Z,77.91
2023-03-26T04:29:17.091Z,77.92
2023-03-26T04:31:39.812Z,77.71
2023-03-26T04:34:18.685Z,78.01
2023-03-26T04:37:03.503Z,77.76
2023-03-26T04:39:29.355Z,78.10
2023-03-26T04:42:11.497Z,77.94
2023-03-26T04:44:50.853Z,77.99
2023-03-26T04:47:13.269Z,77.98
2023-03-26T04:49:39.686Z,77.84
2023-03-26T04:52:01.512Z,77.51
2023-03-26T04:54:45.504Z,78.17
2023-03-26T04:57:19.177Z,77.67
2023-03-26T04:59:45.251Z,77.86
2023-03-26T05:02:09.634Z,77.84
2023-03-26T05:04:43.876Z,77.86
2023-03-26T05:07:06.197Z,77.87
2023-03-26T05:09:34.132Z,78.08
2023-03-26T05:12:17.220Z,78.18
2023-03-26T05:15:00.823Z,77.86
2023-03-26T05:17:46.495Z,78.17
2023-03-26T05:20:26.388Z,78.13
2023-03-26T05:22:50.677Z,78.17
2023-03-26T05:25:20.575Z,78.23
2023-03-26T05:27:45.237Z,78.35
2023-03-26T05:30:09.875Z,78.36
2023-03-26T05:32:38.162Z,78.19
2023-03-26T05:35:00.979Z,78.50
2023-03-26T05:37:24.607Z,78.45
2023-03-26T05:39:58.079Z,78.35
2023-03-26T05:42:32.773Z,78.58
2023-03-26T05:45:15.561Z,78.74
2023-03-26T05:47:37.972Z,78.79
2023-03-26T05:50:00.349Z,78.64
2023-03-26T05:52:22.191Z,78.71
2023-03-26T05:55:22.049Z,78.94
2023-03-26T05:58:19.215Z,78.53
2023-03-26T06:01:06.255Z,78.68
2023-03-26T06:03:48.600Z,78.64
2023-03-26T06:06:17.688Z,78.89
2023-03-26T06:09:01.790Z,79.17
2023-03-26T06:11:24.210Z,79.36
2023-03-26T06:13:46.814Z,79.42
2023-03-26T06:16:26.536Z,79.10
2023-03-26T06:19:13.145Z,79.33
2023-03-26T06:21:44.513Z,79.12
2023-03-26T06:24:19.906Z,78.88
2023-03-26T06:26:53.042Z,79.13
2023-03-26T06:29:33.064Z,79.38
2023-03-26T06:32:20.075Z,79.36
2023-03-26T06:35:11.828Z,79.42
2023-03-26T06:37:35.005Z,79.63
2023-03-26T06:39:57.589Z,79.77
2023-03-26T06:43:08.899Z,79.51
2023-03-26T06:45:44.263Z,79.59
2023-03-26T06:48:17.873Z,79.75
2023-03-26T06:51:03.608Z,80.06
2023-03-26T06:53:45.289Z,80.01
2023-03-26T06:56:13.665Z,80.17
2023-03-26T06:58:50.251Z,80.03
2023-03-26T07:01:30.688Z,80.30
2023-03-26T07:04:11.295Z,79.95
2023-03-26T07:06:51.206Z,80.13
2023-03-26T07:09:31.710Z,80.06
2023-03-26T07:12:19.259Z,80.17
2023-03-26T07:14:54.171Z,80.33
2023-03-26T07:17:37.492Z,80.15
2023-03-26T07:20:09.228Z,80.16
2023-03-26T07:22:31.405Z,80.48
2023-03-26T07:25:02.230Z,80.48
2023-03-26T07:27:59.750Z,80.35
2023-03-26T07:33:58.774Z,80.48
2023-03-26T07:37:02.056Z,80.71
2023-03-26T07:39:58.992Z,80.65
2023-03-26T07:42:57.176Z,80.66
2023-03-26T07:45:45.679Z,80.73
2023-03-26T07:48:37.657Z,80.53
2023-03-26T07:51:15.440Z,80.86
2023-03-26T07:54:04.255Z,80.84
2023-03-26T07:56:50.404Z,80.99
2023-03-26T07:59:36.829Z,80.55
2023-03-26T08:02:59.221Z,80.82
2023-03-26T08:06:15.410Z,80.99
2023-03-26T08:09:35.667Z,81.08
2023-03-26T08:12:40.857Z,80.95
2023-03-26T08:15:31.158Z,81.02
2023-03-26T08:18:06.540Z,81.24
2023-03-26T08:20:44.203Z,80.96
2023-03-26T08:23:17.429Z,81.15
2023-03-26T08:26:09.386Z,81.00
2023-03-26T08:28:55.419Z,80.85
2023-03-26T08:31:20.217Z,81.26
2023-03-26T08:33:41.872Z,81.24
2023-03-26T08:36:04.429Z,81.28
2023-03-26T08:38:26.311Z,81.42
2023-03-26T08:41:12.427Z,81.35
2023-03-26T08:43:57.457Z,81.34
2023-03-26T08:47:04.135Z,81.34
2023-03-26T08:50:04.370Z,81.51
2023-03-26T08:52:48.850Z,81.39
2023-03-26T08:55:52.438Z,81.77
2023-03-26T08:58:23.106Z,81.55
2023-03-26T09:01:30.000Z,81.78
2023-03-26T09:04:21.566Z,81.28
2023-03-26T09:07:10.020Z,81.40
2023-03-26T09:10:09.106Z,81.33
2023-03-26T09:12:39.850Z,81.48
2023-03-26T09:15:32.209Z,81.44
2023-03-26T09:18:42.629Z,81.42
2023-03-26T09:21:36.970Z,81.32
2023-03-26T09:25:01.135Z,81.41
2023-03-26T09:28:20.648Z,81.74
2023-03-26T09:31:16.794Z,81.42
2023-03-26T09:33:56.363Z,81.46
2023-03-26T09:36:46.761Z,81.62
2023-03-26T09:39:33.076Z,81.90
2023-03-26T09:42:08.720Z,81.85
2023-03-26T09:45:17.348Z,81.49
2023-03-26T09:48:15.457Z,81.60
2023-03-26T09:51:06.393Z,81.14
2023-03-26T09:54:31.114Z,81.28
2023-03-26T09:57:27.901Z,80.92
2023-03-26T10:00:15.804Z,80.69
2023-03-26T10:03:19.687Z,80.67
2023-03-26T10:06:26.187Z,80.27
2023-03-26T10:08:59.222Z,79.85
2023-03-26T10:11:52.575Z,79.69
2023-03-26T10:14:37.787Z,80.06
2023-03-26T10:17:38.642Z,79.91
2023-03-26T10:20:30.285Z,79.67
2023-03-26T10:23:30.285Z,79.42
2023-03-26T10:27:08.923Z,79.16
2023-03-26T10:29:35.292Z,79.23
2023-03-26T10:32:28.350Z,78.58
2023-03-26T10:35:23.551Z,78.07
2023-03-26T10:38:22.428Z,77.43
2023-03-26T10:41:09.142Z,77.61
2023-03-26T10:44:09.062Z,77.64
2023-03-26T10:47:03.550Z,77.98
2023-03-26T10:49:49.099Z,77.81
2023-03-26T10:52:21.916Z,77.98
2023-03-26T10:54:58.656Z,78.01
2023-03-26T10:57:41.170Z,78.02
2023-03-26T11:00:25.682Z,77.90
2023-03-26T11:03:14.675Z,78.30
2023-03-26T11:06:16.361Z,78.43
2023-03-26T11:09:01.902Z,78.35
2023-03-26T11:11:44.942Z,78.49
2023-03-26T11:14:24.288Z,78.43
2023-03-26T11:17:39.351Z,78.45
2023-03-26T11:20:49.535Z,78.41
2023-03-26T11:23:41.496Z,78.40
2023-03-26T11:26:11.952Z,78.35
2023-03-26T11:32:12.840Z,78.58
2023-03-26T11:34:36.952Z,78.45
2023-03-26T11:34:54.997Z,78.90
2023-03-26T11:37:50.586Z,79.04
2023-03-26T11:40:25.405Z,79.09
2023-03-26T11:42:52.304Z,79.21
2023-03-26T11:45:24.154Z,79.27
2023-03-26T11:47:52.921Z,78.61
2023-03-26T11:50:22.614Z,78.76
2023-03-26T11:52:47.145Z,78.72
2023-03-26T11:55:12.711Z,78.77
2023-03-26T11:57:38.175Z,78.42
2023-03-26T12:00:20.935Z,78.20
2023-03-26T12:02:44.068Z,78.22
2023-03-26T12:05:26.579Z,77.80
2023-03-26T12:08:00.908Z,77.33
2023-03-26T12:10:38.877Z,77.30
2023-03-26T12:13:30.050Z,77.30
2023-03-26T12:15:58.395Z,77.13
2023-03-26T12:18:26.945Z,77.07
2023-03-26T12:20:49.479Z,77.50
2023-03-26T12:23:51.209Z,77.96
2023-03-26T12:26:41.257Z,78.19
2023-03-26T12:29:12.899Z,78.13
2023-03-26T12:31:49.469Z,77.98
2023-03-26T12:34:19.495Z,77.88
2023-03-26T12:36:51.348Z,77.65
2023-03-26T12:40:09.585Z,77.46
2023-03-26T12:44:50.336Z,75.68
2023-03-26T12:45:14.518Z,75.45
2023-03-26T12:47:57.272Z,75.65
2023-03-26T12:50:18.482Z,76.11
2023-03-26T12:53:17.941Z,75.87
2023-03-26T12:55:56.614Z,75.80
2023-03-26T12:58:59.324Z,75.46
2023-03-26T13:01:59.235Z,75.88
2023-03-26T13:05:06.135Z,75.85
2023-03-26T13:07:50.724Z,75.91
2023-03-26T13:10:52.702Z,75.98
2023-03-26T13:14:02.074Z,76.23
2023-03-26T13:17:12.022Z,76.37
2023-03-26T13:20:11.797Z,77.75
2023-03-26T13:22:58.980Z,78.34
2023-03-26T13:25:52.150Z,78.82
2023-03-26T13:28:19.833Z,78.94
2023-03-26T13:30:54.038Z,79.21
2023-03-26T13:34:00.239Z,79.26
2023-03-26T13:36:39.100Z,79.58
2023-03-26T13:39:40.959Z,80.20
2023-03-26T13:42:47.604Z,80.31
2023-03-26T13:45:36.652Z,80.12
2023-03-26T13:48:02.432Z,80.29
2023-03-26T13:50:33.574Z,80.06
2023-03-26T13:53:39.498Z,79.97
2023-03-26T13:56:01.384Z,79.89
2023-03-26T13:58:22.952Z,80.09
2023-03-26T14:00:55.166Z,79.86
2023-03-26T14:03:35.808Z,79.27
2023-03-26T14:06:06.483Z,79.31
2023-03-26T14:08:43.808Z,79.42
2023-03-26T14:11:13.680Z,78.04
2023-03-26T14:14:06.640Z,77.82
2023-03-26T14:16:38.145Z,78.03
2023-03-26T14:19:21.586Z,77.74
2023-03-26T14:22:10.597Z,77.63
2023-03-26T14:24:49.776Z,78.19
2023-03-26T14:28:01.818Z,78.00
2023-03-26T14:30:48.501Z,78.14
2023-03-26T14:33:50.494Z,77.77
2023-03-26T14:36:49.174Z,78.52
2023-03-26T14:39:30.584Z,78.24
2023-03-26T14:42:23.204Z,78.29
2023-03-26T14:45:29.951Z,78.80
2023-03-26T14:48:18.748Z,78.47
2023-03-26T14:51:15.771Z,79.00
2023-03-26T14:53:44.148Z,78.36
2023-03-26T14:56:45.594Z,78.03
2023-03-26T14:59:37.601Z,78.34
2023-03-26T15:02:29.414Z,77.55
2023-03-26T15:04:54.300Z,77.48
2023-03-26T15:07:46.943Z,77.22
2023-03-26T15:10:36.489Z,76.33
2023-03-26T15:13:48.937Z,76.41
2023-03-26T15:16:45.411Z,76.48
2023-03-26T15:19:47.135Z,75.79
2023-03-26T15:23:02.308Z,75.42
2023-03-26T15:26:11.188Z,74.63
2023-03-26T15:29:01.091Z,72.68
2023-03-26T15:32:08.769Z,71.36
2023-03-26T15:35:11.462Z,70.86
2023-03-26T15:38:12.138Z,70.60
2023-03-26T15:41:08.055Z,70.76
2023-03-26T15:44:22.905Z,70.30
2023-03-26T15:47:23.234Z,69.25
2023-03-26T15:49:59.940Z,68.50
2023-03-26T15:53:02.067Z,68.32
2023-03-26T15:56:24.393Z,68.52
2023-03-26T15:59:09.328Z,68.11
2023-03-26T16:01:45.549Z,68.91
2023-03-26T16:04:38.625Z,68.69
2023-03-26T16:07:30.873Z,68.40
2023-03-26T16:10:29.654Z,68.50
2023-03-26T16:13:19.374Z,69.20
2023-03-26T16:15:42.766Z,68.79
2023-03-26T16:18:12.052Z,68.72
2023-03-26T16:21:04.271Z,67.67
2023-03-26T16:23:47.664Z,67.06
2023-03-26T16:26:18.565Z,66.32
2023-03-26T16:28:48.919Z,65.63
2023-03-26T16:31:36.718Z,65.78
2023-03-26T16:34:09.249Z,65.81
2023-03-26T16:36:35.683Z,64.89
2023-03-26T16:39:00.060Z,65.61
2023-03-26T16:41:31.454Z,64.67
2023-03-26T16:44:29.042Z,64.06
2023-03-26T16:47:12.200Z,64.12
2023-03-26T16:50:15.645Z,63.67
2023-03-26T16:52:58.736Z,63.06
2023-03-26T16:55:39.898Z,63.74
2023-03-26T16:58:34.211Z,62.21
2023-03-26T17:01:34.267Z,62.31
2023-03-26T17:04:11.652Z,62.57
2023-03-26T17:07:01.925Z,61.66
2023-03-26T17:09:54.809Z,62.27
2023-03-26T17:12:57.964Z,61.82
2023-03-26T17:15:30.639Z,62.26
2023-03-26T17:18:16.468Z,61.20
2023-03-26T17:20:58.554Z,60.26
2023-03-26T17:23:55.626Z,60.66
2023-03-26T17:26:52.187Z,60.04
2023-03-26T17:29:51.059Z,60.26
2023-03-26T17:32:15.095Z,61.21
2023-03-26T17:34:46.847Z,61.79
2023-03-26T17:37:18.858Z,61.52
2023-03-26T17:39:40.499Z,61.17
2023-03-26T17:42:26.695Z,60.60
2023-03-26T17:45:20.370Z,59.73
2023-03-26T17:47:56.441Z,59.91
2023-03-26T17:50:26.589Z,60.36
2023-03-26T17:53:01.322Z,59.18
2023-03-26T17:55:31.119Z,58.75
2023-03-26T17:57:59.023Z,59.60
2023-03-26T18:00:34.948Z,59.91
2023-03-26T18:03:02.886Z,59.99
2023-03-26T18:05:29.631Z,59.69
2023-03-26T18:08:33.909Z,60.14
2023-03-26T18:11:29.248Z,59.21
2023-03-26T18:14:24.692Z,60.02
2023-03-26T18:17:06.484Z,59.77
2023-03-26T18:19:29.424Z,59.51
2023-03-26T18:21:59.194Z,59.22
2023-03-26T18:24:29.736Z,59.46
2023-03-26T18:27:13.378Z,59.56
2023-03-26T18:29:37.436Z,59.09
2023-03-26T18:32:22.300Z,58.84
2023-03-26T18:34:59.148Z,59.64
2023-03-26T18:37:36.016Z,60.68
2023-03-26T18:40:16.239Z,59.62
2023-03-26T18:42:43.140Z,59.12
2023-03-26T18:45:23.462Z,58.26
2023-03-26T18:47:47.657Z,58.08
2023-03-26T18:50:16.883Z,57.93
2023-03-26T18:52:38.647Z,57.76
2023-03-26T18:55:03.824Z,56.78
2023-03-26T18:57:28.874Z,56.35
2023-03-26T18:59:54.720Z,56.10
2023-03-26T19:02:18.070Z,56.69
2023-03-26T19:04:46.597Z,56.65
2023-03-26T19:07:14.530Z,57.10
2023-03-26T19:09:37.997Z,56.31
2023-03-26T19:12:23.014Z,55.65
2023-03-26T19:15:07.678Z,55.32
2023-03-26T19:17:38.533Z,56.65
2023-03-26T19:20:01.235Z,55.77
2023-03-26T19:22:24.111Z,56.84
2023-03-26T19:24:46.289Z,56.18
2023-03-26T19:27:08.720Z,55.64
2023-03-26T19:29:34.963Z,54.35
2023-03-26T19:32:21.911Z,54.40
2023-03-26T19:34:47.026Z,54.95
2023-03-26T19:37:30.050Z,55.11
2023-03-26T19:39:55.397Z,53.67
2023-03-26T19:42:27.613Z,54.20
2023-03-26T19:45:18.084Z,54.56
2023-03-26T19:47:50.074Z,53.28
2023-03-26T19:50:23.331Z,53.83
2023-03-26T19:52:45.319Z,54.41
2023-03-26T19:55:10.150Z,53.87
2023-03-26T19:57:37.249Z,54.62
2023-03-26T20:00:00.205Z,54.62
2023-03-26T20:02:22.773Z,55.03
2023-03-26T20:04:45.049Z,55.31
2023-03-26T20:07:19.243Z,55.05
2023-03-26T20:09:43.529Z,55.00
2023-03-26T20:12:05.246Z,55.68
2023-03-26T20:14:27.021Z,55.54
2023-03-26T20:16:48.782Z,55.53
2023-03-26T20:19:11.143Z,55.50
2023-03-26T20:21:34.732Z,55.04
2023-03-26T20:23:59.147Z,55.68
2023-03-26T20:26:24.034Z,55.89
2023-03-26T20:28:48.149Z,56.25
2023-03-26T20:31:26.668Z,56.78
2023-03-26T20:33:50.768Z,56.75
2023-03-26T20:36:13.808Z,56.86
2023-03-26T20:38:39.515Z,56.55
2023-03-26T20:41:01.815Z,56.73
2023-03-26T20:43:25.124Z,56.78
2023-03-26T20:45:46.781Z,56.73
2023-03-26T20:48:11.927Z,56.84
2023-03-26T20:50:35.840Z,57.54
2023-03-26T20:52:59.749Z,57.90
2023-03-26T20:55:21.446Z,57.89
2023-03-26T20:57:46.240Z,58.14
2023-03-26T21:00:20.013Z,58.13
2023-03-26T21:02:43.267Z,58.58
2023-03-26T21:05:05.699Z,58.77
2023-03-26T21:07:27.292Z,59.38
2023-03-26T21:09:49.504Z,59.48
2023-03-26T21:12:29.987Z,60.02
2023-03-26T21:14:52.299Z,59.76
2023-03-26T21:17:21.061Z,59.76
2023-03-26T21:19:44.064Z,60.39
2023-03-26T21:22:46.134Z,60.40
2023-03-26T21:25:56.345Z,60.89
2023-03-26T21:28:42.306Z,61.44
2023-03-26T21:31:06.318Z,61.18
2023-03-26T21:33:28.346Z,61.77
2023-03-26T21:35:51.829Z,61.87
2023-03-26T21:38:23.542Z,62.36
2023-03-26T21:40:52.962Z,62.38
2023-03-26T21:43:21.477Z,62.60
2023-03-26T21:45:45.016Z,62.83
2023-03-26T21:48:07.479Z,62.86
2023-03-26T21:50:29.829Z,63.07
2023-03-26T21:52:52.429Z,62.83
2023-03-26T21:55:17.594Z,62.99
2023-03-26T21:58:20.826Z,62.70
2023-03-26T22:01:16.073Z,62.66
2023-03-26T22:04:01.792Z,63.12
2023-03-26T22:07:04.289Z,62.79
2023-03-26T22:09:33.905Z,62.56
2023-03-26T22:11:57.690Z,63.04
2023-03-26T22:14:19.285Z,62.83
2023-03-26T22:16:41.619Z,62.77
2023-03-26T22:19:03.388Z,62.40
2023-03-26T22:21:25.264Z,62.56
2023-03-26T22:23:52.722Z,63.01
2023-03-26T22:26:14.396Z,63.10
2023-03-26T22:28:36.442Z,62.66
2023-03-26T22:30:59.158Z,62.57
2023-03-26T22:33:21.470Z,62.84
2023-03-26T22:35:43.204Z,62.95
2023-03-26T22:38:05.615Z,62.92
2023-03-26T22:40:27.305Z,63.05
2023-03-26T22:42:48.983Z,62.78
2023-03-26T22:45:11.819Z,62.90
2023-03-26T22:47:36.304Z,63.08
2023-03-26T22:49:58.142Z,62.95
2023-03-26T22:52:19.771Z,63.15
2023-03-26T22:54:42.202Z,63.16
2023-03-26T22:57:04.136Z,62.94
2023-03-26T22:59:26.413Z,63.49
2023-03-26T23:01:48.149Z,63.54
2023-03-26T23:04:10.304Z,63.42
2023-03-26T23:06:32.020Z,63.39
2023-03-26T23:08:54.811Z,63.30
2023-03-26T23:11:19.761Z,63.73
2023-03-26T23:13:43.261Z,63.78
2023-03-26T23:16:05.783Z,64.02
2023-03-26T23:18:29.251Z,63.99
2023-03-26T23:20:56.043Z,63.81
2023-03-26T23:23:17.774Z,63.57
2023-03-26T23:25:40.746Z,64.07
2023-03-26T23:28:03.427Z,63.85
2023-03-26T23:30:25.605Z,64.07
2023-03-26T23:32:47.372Z,63.86
2023-03-26T23:35:09.652Z,64.16
2023-03-26T23:37:34.836Z,64.03
2023-03-26T23:39:56.507Z,64.20
2023-03-26T23:42:29.084Z,64.25
2023-03-26T23:44:51.475Z,64.07
2023-03-26T23:47:16.695Z,64.54
2023-03-26T23:49:38.443Z,64.80
2023-03-26T23:52:00.948Z,64.63
2023-03-26T23:54:25.561Z,64.92
2023-03-26T23:56:49.076Z,64.98
2023-03-26T23:59:10.690Z,64.79
